Time;durP1;ratioP1;P1;durP2;ratioP2;P2;SDS_P1;SDS_P2;PMS_P1;PMS_P2;Temp;Humidity;BMP_temperature;BMP_pressure;BME280_temperature;BME280_humidity;BME280_pressure;Samples;Min_cycle;Max_cycle;Signal;HPM_P1;HPM_P2
2021/11/28 00:00:32;;;;;;;0.98;0.95;;;3.60;99.90;;;;;;4430851;32;20061;-70
2021/11/28 00:02:58;;;;;;;0.60;0.60;;;3.50;99.90;;;;;;4446045;32;20088;-71
2021/11/28 00:05:26;;;;;;;0.60;0.60;;;3.40;99.90;;;;;;4437343;32;20184;-71
2021/11/28 00:10:46;;;;;;;1.58;1.48;;;3.50;99.90;;;;;;4429841;32;20104;-72
2021/11/28 00:13:23;;;;;;;1.45;1.23;;;3.50;99.90;;;;;;4433708;32;20121;-70
2021/11/28 00:15:49;;;;;;;0.50;0.50;;;3.60;99.90;;;;;;4430588;32;20547;-70
2021/11/28 00:18:14;;;;;;;1.65;1.15;;;3.70;99.90;;;;;;4428906;32;20073;-70
2021/11/28 00:20:40;;;;;;;0.50;0.50;;;3.60;99.90;;;;;;4434307;32;20538;-71
2021/11/28 00:23:05;;;;;;;0.60;0.60;;;3.60;99.90;;;;;;4429743;32;20081;-70
2021/11/28 00:25:31;;;;;;;3.20;1.70;;;3.60;99.90;;;;;;4429791;32;20066;-71
2021/11/28 00:27:57;;;;;;;0.77;0.77;;;3.70;99.90;;;;;;4428657;32;20081;-71
2021/11/28 00:30:25;;;;;;;0.75;0.73;;;3.70;99.90;;;;;;4431860;32;20065;-72
2021/11/28 00:32:50;;;;;;;0.62;0.62;;;3.60;99.90;;;;;;4428606;32;20082;-72
2021/11/28 00:35:16;;;;;;;0.57;0.57;;;3.60;99.90;;;;;;4428108;32;20538;-71
2021/11/28 00:37:42;;;;;;;0.50;0.50;;;3.70;99.90;;;;;;4429772;32;20085;-70
2021/11/28 00:40:08;;;;;;;0.70;0.40;;;3.60;99.90;;;;;;4432950;32;20085;-70
2021/11/28 00:42:34;;;;;;;0.40;0.40;;;3.60;99.90;;;;;;4429222;32;20128;-70
2021/11/28 00:44:59;;;;;;;1.33;0.75;;;3.60;99.90;;;;;;4429581;32;20413;-71
2021/11/28 00:47:25;;;;;;;0.43;0.43;;;3.50;99.90;;;;;;4429123;32;20076;-70
2021/11/28 00:50:28;;;;;;;0.65;0.65;;;3.60;99.90;;;;;;4440832;32;20119;-70
2021/11/28 00:52:38;;;;;;;2.78;0.70;;;3.60;99.90;;;;;;4433953;32;20081;-70
2021/11/28 00:55:06;;;;;;;1.65;0.62;;;3.50;99.90;;;;;;4429109;32;20120;-71
2021/11/28 00:57:32;;;;;;;0.40;0.40;;;3.60;99.90;;;;;;4427474;32;20061;-72
2021/11/28 01:00:04;;;;;;;0.60;0.60;;;3.70;99.90;;;;;;4433545;32;20115;-70
2021/11/28 01:02:30;;;;;;;0.82;0.82;;;3.70;99.90;;;;;;4427593;32;20077;-72
2021/11/28 01:04:56;;;;;;;0.60;0.60;;;3.70;99.90;;;;;;4429656;32;20070;-71
2021/11/28 01:07:21;;;;;;;1.17;0.80;;;3.70;99.90;;;;;;4430011;32;20094;-72
2021/11/28 01:09:47;;;;;;;0.60;0.60;;;3.80;99.90;;;;;;4437349;32;20072;-72
2021/11/28 01:12:12;;;;;;;0.40;0.40;;;3.80;99.90;;;;;;4426483;32;20097;-72
2021/11/28 01:14:38;;;;;;;1.23;0.80;;;3.80;99.90;;;;;;4427124;32;20734;-71
2021/11/28 01:17:05;;;;;;;0.55;0.55;;;3.90;99.90;;;;;;4424772;32;20534;-70
2021/11/28 01:19:31;;;;;;;0.93;0.93;;;3.80;99.90;;;;;;4431639;32;20090;-71
2021/11/28 01:22:01;;;;;;;1.05;1.05;;;3.80;99.90;;;;;;4428413;32;20503;-72
2021/11/28 01:24:27;;;;;;;0.40;0.40;;;3.80;99.90;;;;;;4430186;32;20510;-71
2021/11/28 01:26:53;;;;;;;3.53;1.37;;;3.70;99.90;;;;;;4431027;32;20065;-71
2021/11/28 01:29:19;;;;;;;0.50;0.50;;;3.70;99.90;;;;;;4427803;32;20081;-72
2021/11/28 01:31:45;;;;;;;1.05;0.95;;;3.70;99.90;;;;;;4429317;32;20077;-72
2021/11/28 01:34:11;;;;;;;0.60;0.60;;;3.70;99.90;;;;;;4434528;32;20112;-71
2021/11/28 01:36:39;;;;;;;0.50;0.50;;;3.80;99.90;;;;;;4430124;32;20065;-72
2021/11/28 01:39:05;;;;;;;1.10;0.90;;;3.80;99.90;;;;;;4434193;32;20558;-71
2021/11/28 01:41:31;;;;;;;0.65;0.65;;;3.80;99.90;;;;;;4437692;32;20148;-71
2021/11/28 01:43:57;;;;;;;0.60;0.60;;;3.80;99.90;;;;;;4427168;32;20069;-72
2021/11/28 01:46:24;;;;;;;1.55;0.88;;;3.90;99.90;;;;;;4434729;32;20061;-71
2021/11/28 01:48:50;;;;;;;0.60;0.60;;;4.00;99.90;;;;;;4430688;32;20148;-72
2021/11/28 01:51:16;;;;;;;1.10;0.60;;;3.90;99.90;;;;;;4431691;32;20463;-71
2021/11/28 01:53:42;;;;;;;0.85;0.85;;;3.90;99.90;;;;;;4428636;32;20077;-71
2021/11/28 01:56:07;;;;;;;0.60;0.60;;;3.80;99.90;;;;;;4431298;32;20073;-71
2021/11/28 01:58:33;;;;;;;1.00;0.98;;;3.80;99.90;;;;;;4429972;32;20065;-72
2021/11/28 02:01:04;;;;;;;0.62;0.62;;;3.90;99.90;;;;;;4428723;32;20176;-71
2021/11/28 02:03:29;;;;;;;3.35;0.60;;;3.90;99.90;;;;;;4426994;32;20433;-70
2021/11/28 02:05:58;;;;;;;1.92;0.77;;;3.80;99.90;;;;;;4431021;32;20065;-71
2021/11/28 02:08:24;;;;;;;0.47;0.47;;;3.80;99.90;;;;;;4427137;32;20485;-72
2021/11/28 02:10:51;;;;;;;1.00;0.85;;;3.80;99.90;;;;;;4429516;32;20539;-71
2021/11/28 02:13:18;;;;;;;0.62;0.62;;;3.70;99.90;;;;;;4431755;32;20143;-72
2021/11/28 02:15:44;;;;;;;0.98;0.93;;;3.70;99.90;;;;;;4429822;32;20086;-72
2021/11/28 02:18:11;;;;;;;1.48;0.95;;;3.70;99.90;;;;;;4436838;32;20073;-72
2021/11/28 02:20:46;;;;;;;0.40;0.40;;;3.60;99.90;;;;;;4439776;32;20099;-72
2021/11/28 02:23:12;;;;;;;0.40;0.40;;;3.60;99.90;;;;;;4430190;32;20080;-72
2021/11/28 02:25:38;;;;;;;0.47;0.47;;;3.60;99.90;;;;;;4434290;32;20073;-70
2021/11/28 02:28:04;;;;;;;0.40;0.40;;;3.60;99.90;;;;;;4427674;32;20161;-70
2021/11/28 02:30:29;;;;;;;0.45;0.45;;;3.70;99.90;;;;;;4431809;32;20057;-72
2021/11/28 02:32:57;;;;;;;0.70;0.70;;;3.80;99.90;;;;;;4432237;32;20089;-72
2021/11/28 02:35:23;;;;;;;5.45;1.50;;;3.70;99.90;;;;;;4433123;32;20110;-71
2021/11/28 02:37:49;;;;;;;0.60;0.60;;;3.70;99.90;;;;;;4435893;32;20128;-72
2021/11/28 02:40:18;;;;;;;0.50;0.50;;;3.80;99.90;;;;;;4433615;32;20081;-72
2021/11/28 02:42:44;;;;;;;0.95;0.70;;;3.90;99.90;;;;;;4432867;32;20072;-72
2021/11/28 02:45:12;;;;;;;0.43;0.43;;;3.80;99.90;;;;;;4438876;32;20110;-72
2021/11/28 02:47:38;;;;;;;0.50;0.50;;;3.70;99.90;;;;;;4437538;32;20544;-72
2021/11/28 02:50:05;;;;;;;0.52;0.52;;;3.80;99.90;;;;;;4443493;32;20104;-72
2021/11/28 02:52:32;;;;;;;0.37;0.37;;;3.90;99.90;;;;;;4437814;32;20077;-72
2021/11/28 02:54:57;;;;;;;2.85;0.90;;;3.90;99.90;;;;;;4429296;32;20085;-72
2021/11/28 02:57:23;;;;;;;0.50;0.50;;;3.90;99.90;;;;;;4429551;32;20444;-71
2021/11/28 02:59:48;;;;;;;0.40;0.40;;;3.90;99.90;;;;;;4432230;32;20076;-71
2021/11/28 03:02:15;;;;;;;0.43;0.43;;;3.90;99.90;;;;;;4433814;32;20130;-71
2021/11/28 03:04:41;;;;;;;0.50;0.50;;;3.80;99.90;;;;;;4435065;32;20464;-71
2021/11/28 03:07:06;;;;;;;0.57;0.57;;;3.90;99.90;;;;;;4430217;32;20124;-70
2021/11/28 03:09:32;;;;;;;0.40;0.40;;;3.80;99.90;;;;;;4428917;32;20137;-71
2021/11/28 03:11:58;;;;;;;0.55;0.55;;;3.80;99.90;;;;;;4430214;32;20507;-71
2021/11/28 03:14:24;;;;;;;0.60;0.60;;;3.80;99.90;;;;;;4439642;32;20077;-71
2021/11/28 03:16:50;;;;;;;0.55;0.55;;;3.70;99.90;;;;;;4437331;32;20127;-72
2021/11/28 03:19:16;;;;;;;0.30;0.30;;;3.70;99.90;;;;;;4430030;32;20073;-71
2021/11/28 03:21:42;;;;;;;0.80;0.80;;;3.70;99.90;;;;;;4440661;32;20146;-71
2021/11/28 03:24:08;;;;;;;0.62;0.62;;;3.60;99.90;;;;;;4442108;32;20514;-71
2021/11/28 03:26:37;;;;;;;0.65;0.65;;;3.50;99.90;;;;;;4433266;32;20132;-71
2021/11/28 03:29:07;;;;;;;0.62;0.62;;;3.60;99.90;;;;;;4426587;32;20790;-71
2021/11/28 03:31:37;;;;;;;0.60;0.60;;;3.60;99.90;;;;;;4431284;32;20088;-71
2021/11/28 03:34:05;;;;;;;1.12;1.00;;;3.60;99.90;;;;;;4426990;32;20053;-71
2021/11/28 03:36:32;;;;;;;1.25;0.82;;;3.60;99.90;;;;;;4438111;32;20146;-71
2021/11/28 03:38:58;;;;;;;1.17;0.80;;;3.50;99.90;;;;;;4430239;32;20085;-71
2021/11/28 03:41:27;;;;;;;0.30;0.30;;;3.60;99.90;;;;;;4433327;32;20069;-71
2021/11/28 03:43:55;;;;;;;0.40;0.40;;;3.60;99.90;;;;;;4429029;32;20065;-71
2021/11/28 03:46:20;;;;;;;0.93;0.50;;;3.70;99.90;;;;;;4431483;32;20081;-71
2021/11/28 03:48:46;;;;;;;0.30;0.30;;;3.70;99.90;;;;;;4429213;32;20448;-71
2021/11/28 03:51:12;;;;;;;0.60;0.60;;;3.70;99.90;;;;;;4432253;32;20072;-71
2021/11/28 03:53:38;;;;;;;1.35;1.08;;;3.70;99.90;;;;;;4430273;32;20069;-71
2021/11/28 03:56:07;;;;;;;1.60;1.48;;;3.70;99.90;;;;;;4432335;32;20528;-71
2021/11/28 03:58:33;;;;;;;0.82;0.82;;;3.60;99.90;;;;;;4438351;32;20069;-71
2021/11/28 04:01:00;;;;;;;0.55;0.55;;;3.60;99.90;;;;;;4428307;32;20085;-71
2021/11/28 04:03:26;;;;;;;0.45;0.43;;;3.40;99.90;;;;;;4436063;32;20082;-71
2021/11/28 04:05:53;;;;;;;2.60;0.80;;;3.30;99.90;;;;;;4428550;32;20081;-71
2021/11/28 04:08:19;;;;;;;1.85;0.57;;;3.30;99.90;;;;;;4428563;32;20527;-72
2021/11/28 04:10:45;;;;;;;0.30;0.30;;;3.20;99.90;;;;;;4431705;32;20407;-71
2021/11/28 04:13:11;;;;;;;0.40;0.40;;;3.20;99.90;;;;;;4435039;32;20061;-71
2021/11/28 04:15:36;;;;;;;0.50;0.50;;;3.20;99.90;;;;;;4430568;32;20345;-71
2021/11/28 04:18:02;;;;;;;0.30;0.30;;;3.20;99.90;;;;;;4431246;32;20061;-71
2021/11/28 04:20:28;;;;;;;0.62;0.62;;;2.90;99.90;;;;;;4430120;32;20064;-71
2021/11/28 04:22:53;;;;;;;0.68;0.68;;;2.90;99.90;;;;;;4434945;32;20074;-71
2021/11/28 04:25:19;;;;;;;0.50;0.50;;;3.00;99.90;;;;;;4429596;32;20086;-71
2021/11/28 04:27:45;;;;;;;0.50;0.50;;;3.00;99.90;;;;;;4429604;32;20065;-71
2021/11/28 04:30:12;;;;;;;0.43;0.43;;;3.00;99.90;;;;;;4432169;32;20084;-71
2021/11/28 04:32:37;;;;;;;0.55;0.55;;;3.00;99.90;;;;;;4433440;32;97262;-71
2021/11/28 04:35:04;;;;;;;0.80;0.80;;;3.00;99.90;;;;;;4427741;32;20061;-71
2021/11/28 04:37:29;;;;;;;0.50;0.50;;;3.00;99.90;;;;;;4428959;32;20081;-71
2021/11/28 04:39:55;;;;;;;0.40;0.40;;;2.90;99.90;;;;;;4430430;32;20163;-71
2021/11/28 04:42:21;;;;;;;0.30;0.30;;;2.80;99.90;;;;;;4439462;32;20061;-71
2021/11/28 04:44:46;;;;;;;0.70;0.70;;;2.70;99.90;;;;;;4433290;32;20089;-71
2021/11/28 04:47:15;;;;;;;0.43;0.43;;;2.70;99.90;;;;;;4429477;32;20062;-71
2021/11/28 04:49:41;;;;;;;0.60;0.60;;;2.80;99.90;;;;;;4436283;32;20085;-71
2021/11/28 04:52:07;;;;;;;0.28;0.28;;;2.80;99.90;;;;;;4436441;32;20112;-71
2021/11/28 04:54:32;;;;;;;0.40;0.40;;;2.80;99.90;;;;;;4436506;32;20062;-71
2021/11/28 04:56:58;;;;;;;0.50;0.50;;;2.90;99.90;;;;;;4432097;32;20057;-71
2021/11/28 04:59:24;;;;;;;0.75;0.75;;;2.80;99.90;;;;;;4434643;32;20163;-71
2021/11/28 05:01:49;;;;;;;1.05;1.02;;;2.70;99.90;;;;;;4432007;32;20060;-71
2021/11/28 05:04:15;;;;;;;0.68;0.68;;;2.70;99.90;;;;;;4440201;32;20120;-71
2021/11/28 05:06:41;;;;;;;0.43;0.43;;;2.60;99.90;;;;;;4429466;32;20062;-71
2021/11/28 05:09:07;;;;;;;0.88;0.75;;;2.60;99.90;;;;;;4428969;32;20485;-71
2021/11/28 05:11:33;;;;;;;0.30;0.30;;;2.40;99.90;;;;;;4432541;32;20076;-71
2021/11/28 05:13:59;;;;;;;0.47;0.47;;;2.50;99.90;;;;;;4429349;32;20061;-71
2021/11/28 05:16:25;;;;;;;0.40;0.40;;;2.40;99.90;;;;;;4427812;32;20440;-71
2021/11/28 05:18:51;;;;;;;0.50;0.50;;;2.40;99.90;;;;;;4428328;32;20073;-71
2021/11/28 05:21:16;;;;;;;0.43;0.43;;;2.40;99.90;;;;;;4432848;32;20061;-71
2021/11/28 05:23:42;;;;;;;0.32;0.32;;;2.40;99.90;;;;;;4438762;32;20077;-71
2021/11/28 05:26:07;;;;;;;1.45;1.12;;;2.40;99.90;;;;;;4431228;32;20131;-71
2021/11/28 05:28:33;;;;;;;0.95;0.95;;;2.40;99.90;;;;;;4433420;32;20468;-71
2021/11/28 05:30:58;;;;;;;0.85;0.85;;;2.50;99.90;;;;;;4427278;32;20068;-71
2021/11/28 05:33:24;;;;;;;0.70;0.70;;;2.50;99.90;;;;;;4430350;32;20090;-71
2021/11/28 05:35:49;;;;;;;0.60;0.60;;;2.40;99.90;;;;;;4426908;32;20061;-71
2021/11/28 05:38:15;;;;;;;0.40;0.40;;;2.30;99.90;;;;;;4425750;32;20445;-71
2021/11/28 05:40:40;;;;;;;0.43;0.43;;;2.40;99.90;;;;;;4432809;32;20122;-71
2021/11/28 05:43:06;;;;;;;0.52;0.52;;;2.40;99.90;;;;;;4441545;32;20097;-72
2021/11/28 05:45:32;;;;;;;0.65;0.65;;;2.50;99.90;;;;;;4429775;32;20132;-72
2021/11/28 05:47:57;;;;;;;1.90;1.35;;;2.30;99.90;;;;;;4427851;32;20284;-72
2021/11/28 05:50:26;;;;;;;0.40;0.40;;;2.30;99.90;;;;;;4429865;32;20116;-72
2021/11/28 05:52:52;;;;;;;0.50;0.50;;;2.30;99.90;;;;;;4433166;32;20085;-71
2021/11/28 05:55:18;;;;;;;2.17;1.20;;;2.20;99.90;;;;;;4436254;32;20081;-71
2021/11/28 05:57:43;;;;;;;1.17;1.05;;;2.20;99.90;;;;;;4440548;32;20065;-71
2021/11/28 06:00:12;;;;;;;0.57;0.57;;;2.10;99.90;;;;;;4431612;32;20495;-71
2021/11/28 06:02:39;;;;;;;0.40;0.40;;;2.10;99.90;;;;;;4431650;32;20306;-71
2021/11/28 06:05:05;;;;;;;0.40;0.40;;;2.10;99.90;;;;;;4426711;32;20542;-71
2021/11/28 06:07:30;;;;;;;0.40;0.40;;;2.00;99.90;;;;;;4429247;32;20172;-71
2021/11/28 06:09:56;;;;;;;0.73;0.73;;;2.00;99.90;;;;;;4431858;32;20133;-71
2021/11/28 06:12:22;;;;;;;1.30;0.80;;;1.90;99.90;;;;;;4433340;32;20085;-71
2021/11/28 06:14:48;;;;;;;0.55;0.55;;;1.70;99.90;;;;;;4432639;32;20065;-71
2021/11/28 06:17:13;;;;;;;1.73;1.23;;;1.70;99.90;;;;;;4431074;32;20061;-71
2021/11/28 06:19:39;;;;;;;0.62;0.62;;;1.90;99.90;;;;;;4431410;32;20084;-71
2021/11/28 06:22:06;;;;;;;0.40;0.40;;;1.90;99.90;;;;;;4435086;32;20090;-71
2021/11/28 06:24:32;;;;;;;0.50;0.50;;;1.80;99.90;;;;;;4432587;32;20077;-71
2021/11/28 06:26:58;;;;;;;0.70;0.60;;;1.70;99.90;;;;;;4436090;32;20428;-71
2021/11/28 06:29:23;;;;;;;0.98;0.90;;;1.70;99.90;;;;;;4444002;32;20068;-71
2021/11/28 06:31:49;;;;;;;0.88;0.70;;;1.70;99.90;;;;;;4431480;32;20066;-71
2021/11/28 06:34:15;;;;;;;0.50;0.50;;;1.60;99.90;;;;;;4441283;32;20072;-71
2021/11/28 06:36:41;;;;;;;0.40;0.40;;;1.60;99.90;;;;;;4426346;32;20064;-71
2021/11/28 06:39:06;;;;;;;0.60;0.60;;;1.60;99.90;;;;;;4430987;32;20085;-71
2021/11/28 06:41:32;;;;;;;0.73;0.70;;;1.60;99.90;;;;;;4436278;32;20077;-71
2021/11/28 06:43:57;;;;;;;1.67;1.20;;;1.40;99.90;;;;;;4430556;32;20077;-71
2021/11/28 06:46:23;;;;;;;0.60;0.60;;;1.60;99.90;;;;;;4429844;32;20061;-71
2021/11/28 06:48:49;;;;;;;1.10;0.88;;;1.60;99.90;;;;;;4433876;32;20116;-71
2021/11/28 06:51:15;;;;;;;0.50;0.50;;;1.60;99.90;;;;;;4434736;32;20476;-71
2021/11/28 06:53:41;;;;;;;0.40;0.40;;;1.60;99.90;;;;;;4437638;32;20124;-72
2021/11/28 06:56:07;;;;;;;0.75;0.65;;;1.50;99.90;;;;;;4430651;32;20078;-72
2021/11/28 06:58:34;;;;;;;0.30;0.30;;;1.60;99.90;;;;;;4430970;32;20579;-72
2021/11/28 07:01:00;;;;;;;0.70;0.47;;;1.60;99.90;;;;;;4434917;32;20107;-72
2021/11/28 07:03:26;;;;;;;0.50;0.50;;;1.60;99.90;;;;;;4430711;32;20099;-72
2021/11/28 07:05:52;;;;;;;0.50;0.50;;;1.60;99.90;;;;;;4436023;32;20080;-72
2021/11/28 07:08:17;;;;;;;0.52;0.52;;;1.50;99.90;;;;;;4431616;32;20530;-73
2021/11/28 07:10:43;;;;;;;0.82;0.82;;;1.50;99.90;;;;;;4439147;32;20081;-72
2021/11/28 07:13:09;;;;;;;0.60;0.60;;;1.40;99.90;;;;;;4433163;32;20069;-71
2021/11/28 07:15:36;;;;;;;0.40;0.40;;;1.40;99.90;;;;;;4428436;32;20726;-71
2021/11/28 07:18:03;;;;;;;0.70;0.70;;;1.30;99.90;;;;;;4428535;32;20499;-71
2021/11/28 07:20:30;;;;;;;0.55;0.55;;;1.30;99.90;;;;;;4430527;32;20078;-71
2021/11/28 07:22:57;;;;;;;0.47;0.47;;;1.40;99.90;;;;;;4443713;32;20048;-71
2021/11/28 07:25:23;;;;;;;0.77;0.77;;;1.40;99.90;;;;;;4436566;32;20065;-71
2021/11/28 07:27:48;;;;;;;0.73;0.73;;;1.40;99.90;;;;;;4434779;32;20125;-71
2021/11/28 07:30:14;;;;;;;2.53;0.88;;;1.30;99.90;;;;;;4440804;32;20061;-72
2021/11/28 07:32:39;;;;;;;0.60;0.60;;;1.40;99.90;;;;;;4440382;32;20073;-71
2021/11/28 07:35:05;;;;;;;1.30;0.93;;;1.40;99.90;;;;;;4442950;32;20168;-71
2021/11/28 07:37:30;;;;;;;0.65;0.65;;;1.40;99.90;;;;;;4432271;32;20384;-71
2021/11/28 07:39:56;;;;;;;0.55;0.55;;;1.40;99.90;;;;;;4429033;32;20076;-71
2021/11/28 07:42:22;;;;;;;0.50;0.50;;;1.40;99.90;;;;;;4420436;32;20077;-71
2021/11/28 07:44:49;;;;;;;0.62;0.62;;;1.50;99.90;;;;;;4431381;32;20065;-71
2021/11/28 07:47:15;;;;;;;0.88;0.82;;;1.50;99.90;;;;;;4431156;32;20640;-71
2021/11/28 07:49:40;;;;;;;0.62;0.62;;;1.30;99.90;;;;;;4439712;32;20080;-71
2021/11/28 07:52:06;;;;;;;0.52;0.52;;;1.30;99.90;;;;;;4432408;32;20077;-72
2021/11/28 07:54:33;;;;;;;0.70;0.70;;;1.40;99.90;;;;;;4439720;32;20084;-72
2021/11/28 07:56:58;;;;;;;1.05;0.77;;;1.30;99.90;;;;;;4443759;32;20530;-72
2021/11/28 07:59:24;;;;;;;0.60;0.60;;;1.50;99.90;;;;;;4441421;32;20062;-71
2021/11/28 08:01:49;;;;;;;0.50;0.50;;;1.60;99.90;;;;;;4420700;32;20208;-71
2021/11/28 08:04:15;;;;;;;0.60;0.60;;;1.60;99.90;;;;;;4427740;32;20081;-71
2021/11/28 08:06:40;;;;;;;12.00;3.75;;;1.60;99.90;;;;;;4429814;32;20060;-71
2021/11/28 08:09:06;;;;;;;0.40;0.40;;;1.60;99.90;;;;;;4445086;32;20101;-71
2021/11/28 08:11:32;;;;;;;0.52;0.52;;;1.60;99.90;;;;;;4431757;32;20526;-71
2021/11/28 08:13:57;;;;;;;0.55;0.55;;;1.50;99.90;;;;;;4430787;32;20089;-71
2021/11/28 08:16:23;;;;;;;1.40;1.02;;;1.60;99.90;;;;;;4429965;32;20108;-72
2021/11/28 08:18:49;;;;;;;0.90;0.90;;;1.60;99.90;;;;;;4428530;32;20120;-71
2021/11/28 08:21:14;;;;;;;0.52;0.47;;;1.80;99.90;;;;;;4441465;32;20186;-71
2021/11/28 08:23:42;;;;;;;1.42;1.33;;;1.70;99.90;;;;;;4428577;32;20229;-71
2021/11/28 08:26:08;;;;;;;0.70;0.70;;;1.80;99.90;;;;;;4425524;32;20073;-71
2021/11/28 08:28:33;;;;;;;0.77;0.77;;;1.80;99.90;;;;;;4434425;32;20454;-71
2021/11/28 08:30:59;;;;;;;0.50;0.50;;;1.80;99.90;;;;;;4424671;32;20098;-71
2021/11/28 08:33:24;;;;;;;0.62;0.62;;;1.90;99.90;;;;;;4427330;32;20073;-71
2021/11/28 08:35:50;;;;;;;0.52;0.52;;;2.10;99.90;;;;;;4428381;32;20077;-71
2021/11/28 08:38:16;;;;;;;0.40;0.40;;;2.00;99.90;;;;;;4429021;32;20078;-72
2021/11/28 08:40:42;;;;;;;1.23;1.12;;;2.10;99.90;;;;;;4438445;32;20098;-70
2021/11/28 08:43:08;;;;;;;0.30;0.30;;;2.20;99.90;;;;;;4431547;32;20064;-71
2021/11/28 08:45:35;;;;;;;0.47;0.47;;;2.30;99.90;;;;;;4429990;32;20064;-70
2021/11/28 08:48:01;;;;;;;1.17;0.90;;;2.40;99.90;;;;;;4428718;32;20136;-70
2021/11/28 08:50:27;;;;;;;0.57;0.57;;;2.40;99.90;;;;;;4431558;32;20069;-70
2021/11/28 08:52:53;;;;;;;0.95;0.80;;;2.50;99.90;;;;;;4439806;32;20099;-70
2021/11/28 08:55:19;;;;;;;0.30;0.30;;;2.50;99.90;;;;;;4431664;32;20112;-71
2021/11/28 08:57:46;;;;;;;0.77;0.77;;;2.60;99.90;;;;;;4439628;32;20515;-71
2021/11/28 09:00:12;;;;;;;0.40;0.40;;;2.60;99.90;;;;;;4429263;32;20141;-70
2021/11/28 09:02:38;;;;;;;0.50;0.50;;;2.70;99.90;;;;;;4430660;32;20124;-71
2021/11/28 09:05:05;;;;;;;0.80;0.80;;;2.80;99.90;;;;;;4427674;32;20065;-71
2021/11/28 09:07:31;;;;;;;0.70;0.70;;;2.80;99.90;;;;;;4432655;32;20111;-71
2021/11/28 09:09:56;;;;;;;0.50;0.50;;;2.60;99.90;;;;;;4431139;32;20108;-71
2021/11/28 09:12:22;;;;;;;0.40;0.40;;;2.70;99.90;;;;;;4433191;32;20084;-71
2021/11/28 09:14:48;;;;;;;0.40;0.40;;;3.00;99.90;;;;;;4432336;32;20077;-71
2021/11/28 09:17:13;;;;;;;0.47;0.47;;;2.80;99.90;;;;;;4428137;32;20069;-71
2021/11/28 09:22:07;;;;;;;0.45;0.45;;;2.80;99.90;;;;;;4432960;32;20115;-71
2021/11/28 09:24:40;;;;;;;0.88;0.88;;;3.00;99.90;;;;;;4428788;32;20554;-70
2021/11/28 09:27:10;;;;;;;1.58;0.93;;;2.90;99.90;;;;;;4443681;32;20138;-71
2021/11/28 09:29:37;;;;;;;0.60;0.60;;;3.10;99.90;;;;;;4435696;32;20066;-71
2021/11/28 09:32:04;;;;;;;0.77;0.55;;;3.10;99.90;;;;;;4429683;32;20082;-70
2021/11/28 09:34:30;;;;;;;0.45;0.45;;;3.20;99.90;;;;;;4428512;32;20092;-70
2021/11/28 09:36:55;;;;;;;0.30;0.30;;;3.30;99.90;;;;;;4429303;32;20112;-70
2021/11/28 09:39:21;;;;;;;1.33;1.08;;;3.50;99.90;;;;;;4428371;32;20170;-70
2021/11/28 09:41:54;;;;;;;0.40;0.40;;;3.50;99.90;;;;;;4433642;32;20069;-70
2021/11/28 09:44:21;;;;;;;0.50;0.50;;;3.50;99.90;;;;;;4431329;32;20182;-71
2021/11/28 09:46:46;;;;;;;0.40;0.40;;;3.50;99.90;;;;;;4434419;32;20120;-70
2021/11/28 09:49:13;;;;;;;12.75;1.30;;;3.70;99.90;;;;;;4438415;32;20171;-70
2021/11/28 09:51:43;;;;;;;1.15;0.88;;;3.80;99.90;;;;;;4435337;32;20076;-71
2021/11/28 09:54:10;;;;;;;0.62;0.62;;;3.80;99.90;;;;;;4436710;32;20061;-70
2021/11/28 09:56:38;;;;;;;0.50;0.50;;;3.90;99.90;;;;;;4446195;32;20677;-70
2021/11/28 09:59:05;;;;;;;0.65;0.65;;;3.80;99.90;;;;;;4440884;32;20466;-71
2021/11/28 10:01:33;;;;;;;0.35;0.35;;;3.80;99.90;;;;;;4446328;32;20069;-71
2021/11/28 10:04:00;;;;;;;1.95;1.08;;;3.90;99.90;;;;;;4434184;32;20153;-71
2021/11/28 10:06:27;;;;;;;1.23;0.68;;;4.10;99.90;;;;;;4433751;32;20573;-71
2021/11/28 10:08:54;;;;;;;0.70;0.70;;;4.00;99.90;;;;;;4439593;32;20519;-71
2021/11/28 10:11:23;;;;;;;0.35;0.35;;;4.10;99.90;;;;;;4434792;32;20134;-71
2021/11/28 10:13:51;;;;;;;0.95;0.75;;;4.20;99.90;;;;;;4429489;32;20065;-71
2021/11/28 10:16:17;;;;;;;0.60;0.60;;;4.40;99.90;;;;;;4439560;32;20069;-70
2021/11/28 10:18:43;;;;;;;1.65;1.02;;;4.40;99.90;;;;;;4449904;32;20558;-71
2021/11/28 10:21:09;;;;;;;0.68;0.68;;;4.40;99.90;;;;;;4441651;32;20129;-71
2021/11/28 10:23:55;;;;;;;1.08;0.77;;;4.50;99.90;;;;;;4438393;32;20073;-71
2021/11/28 10:26:22;;;;;;;0.40;0.40;;;4.50;99.90;;;;;;4425205;32;20429;-72
2021/11/28 10:29:08;;;;;;;0.93;0.93;;;4.60;99.90;;;;;;4422582;32;20061;-70
2021/11/28 10:31:52;;;;;;;3.40;1.45;;;4.50;99.90;;;;;;4429894;32;20081;-71
2021/11/28 10:34:25;;;;;;;0.47;0.47;;;4.40;99.90;;;;;;4436462;32;20791;-70
2021/11/28 10:37:07;;;;;;;0.40;0.40;;;4.40;99.90;;;;;;4436637;32;20068;-71
2021/11/28 10:39:43;;;;;;;0.90;0.90;;;4.40;99.90;;;;;;4434944;32;20086;-70
2021/11/28 10:42:19;;;;;;;0.50;0.50;;;4.50;99.90;;;;;;4438799;32;20154;-71
2021/11/28 10:45:07;;;;;;;0.62;0.62;;;4.70;99.90;;;;;;4433154;32;20066;-71
2021/11/28 10:47:35;;;;;;;1.45;0.70;;;4.60;99.90;;;;;;4434436;32;20077;-71
2021/11/28 10:50:30;;;;;;;5.78;2.10;;;4.70;99.90;;;;;;4437543;32;20092;-71
2021/11/28 10:53:05;;;;;;;0.80;0.80;;;4.70;99.90;;;;;;4431448;32;20073;-71
2021/11/28 10:55:35;;;;;;;1.48;0.65;;;4.90;99.90;;;;;;4434880;32;20123;-71
2021/11/28 10:58:07;;;;;;;0.80;0.77;;;4.70;99.90;;;;;;4447828;32;20081;-71
2021/11/28 11:00:35;;;;;;;0.47;0.47;;;4.70;99.90;;;;;;4436313;32;20052;-71
2021/11/28 11:03:37;;;;;;;2.62;1.15;;;4.70;99.90;;;;;;4431981;32;20582;-70
2021/11/28 11:06:23;;;;;;;0.40;0.40;;;4.70;99.90;;;;;;4421404;32;20094;-70
2021/11/28 11:08:55;;;;;;;0.57;0.57;;;4.90;99.90;;;;;;4436841;32;20436;-70
2021/11/28 11:11:21;;;;;;;0.80;0.80;;;4.90;99.90;;;;;;4434648;32;20184;-71
2021/11/28 11:14:04;;;;;;;6.28;1.33;;;5.10;99.90;;;;;;4427998;32;20086;-71
2021/11/28 11:16:36;;;;;;;1.50;0.90;;;5.20;99.90;;;;;;4434553;32;20105;-71
2021/11/28 11:19:32;;;;;;;0.40;0.40;;;5.30;99.90;;;;;;4434458;32;20065;-71
2021/11/28 11:22:03;;;;;;;1.45;0.82;;;5.40;99.90;;;;;;4442905;32;20058;-71
2021/11/28 11:24:29;;;;;;;0.60;0.60;;;5.30;99.90;;;;;;4429352;32;20061;-71
2021/11/28 11:27:17;;;;;;;0.65;0.65;;;5.50;99.90;;;;;;4435272;32;20180;-71
2021/11/28 11:29:48;;;;;;;2.92;0.80;;;5.60;99.90;;;;;;4433586;32;20522;-71
2021/11/28 11:32:15;;;;;;;0.40;0.40;;;5.70;99.90;;;;;;4437629;32;20124;-71
2021/11/28 11:34:50;;;;;;;1.17;1.08;;;5.70;99.90;;;;;;4424466;32;20113;-71
2021/11/28 11:37:17;;;;;;;0.57;0.57;;;5.70;99.90;;;;;;4428806;32;20093;-72
2021/11/28 11:39:45;;;;;;;0.47;0.47;;;5.80;99.90;;;;;;4436375;32;20105;-71
2021/11/28 11:42:14;;;;;;;0.40;0.40;;;6.10;99.90;;;;;;4441064;32;20525;-71
2021/11/28 11:44:44;;;;;;;0.60;0.60;;;6.40;99.90;;;;;;4431051;32;20573;-71
2021/11/28 11:47:09;;;;;;;0.98;0.90;;;6.40;99.90;;;;;;4434280;32;20133;-70
2021/11/28 11:49:38;;;;;;;1.40;1.30;;;6.30;99.90;;;;;;4434258;32;20542;-70
2021/11/28 11:52:05;;;;;;;0.47;0.47;;;6.40;99.90;;;;;;4435272;32;20647;-70
2021/11/28 11:54:39;;;;;;;1.65;0.98;;;6.70;99.90;;;;;;4432172;32;20061;-71
2021/11/28 11:57:20;;;;;;;0.60;0.60;;;7.10;99.90;;;;;;4418716;32;20089;-70
2021/11/28 12:00:11;;;;;;;0.40;0.40;;;7.20;99.90;;;;;;4428046;32;20085;-70
2021/11/28 12:02:37;;;;;;;;;;;7.50;99.90;;;;;;4433523;32;20353;-70
2021/11/28 12:05:24;;;;;;;0.60;0.52;;;7.50;99.90;;;;;;4434195;32;20342;-71
2021/11/28 12:07:55;;;;;;;0.40;0.40;;;7.80;99.90;;;;;;4426046;32;20061;-70
2021/11/28 12:10:34;;;;;;;1.87;1.65;;;7.60;99.90;;;;;;4430845;32;20114;-70
2021/11/28 12:13:04;;;;;;;0.93;0.70;;;7.90;99.90;;;;;;4430713;32;20065;-70
2021/11/28 12:15:33;;;;;;;0.57;0.57;;;8.00;99.90;;;;;;4431783;32;20062;-70
2021/11/28 12:17:59;;;;;;;0.47;0.47;;;7.70;99.90;;;;;;4434023;32;20061;-71
2021/11/28 12:20:47;;;;;;;1.02;1.00;;;7.90;99.90;;;;;;4428624;32;20060;-71
2021/11/28 12:23:33;;;;;;;0.50;0.50;;;8.00;99.90;;;;;;4426316;32;20097;-71
2021/11/28 12:25:58;;;;;;;1.37;0.95;;;8.20;99.90;;;;;;4426663;32;20140;-71
2021/11/28 12:28:27;;;;;;;0.40;0.40;;;8.40;99.90;;;;;;4430032;32;20106;-71
2021/11/28 12:30:55;;;;;;;0.50;0.50;;;8.70;99.90;;;;;;4430166;32;20085;-71
2021/11/28 12:33:57;;;;;;;1.37;1.27;;;8.70;99.90;;;;;;4424704;32;20545;-71
2021/11/28 12:36:34;;;;;;;1.87;0.95;;;8.40;99.90;;;;;;4429247;32;20191;-71
2021/11/28 12:39:02;;;;;;;1.85;1.60;;;8.40;99.90;;;;;;4429303;32;20070;-70
2021/11/28 12:41:51;;;;;;;0.50;0.50;;;8.50;99.90;;;;;;4433701;32;20068;-71
2021/11/28 12:44:20;;;;;;;2.95;1.10;;;8.20;99.90;;;;;;4432528;32;20070;-71
2021/11/28 12:46:49;;;;;;;0.45;0.45;;;8.30;99.90;;;;;;4430292;32;20077;-71
2021/11/28 12:49:34;;;;;;;0.70;0.70;;;8.30;99.90;;;;;;4432626;32;20384;-71
2021/11/28 12:52:25;;;;;;;0.30;0.30;;;8.10;99.90;;;;;;4428631;32;20510;-71
2021/11/28 12:55:26;;;;;;;1.35;1.10;;;8.00;99.90;;;;;;4431674;32;20069;-71
2021/11/28 12:57:58;;;;;;;0.90;0.60;;;8.00;99.90;;;;;;4430996;32;20081;-71
2021/11/28 13:00:45;;;;;;;0.70;0.70;;;7.40;99.90;;;;;;4432536;32;20124;-71
2021/11/28 13:03:13;;;;;;;0.40;0.40;;;7.50;99.90;;;;;;4435060;32;20093;-73
2021/11/28 13:05:42;;;;;;;0.40;0.40;;;7.40;99.90;;;;;;4430734;32;20077;-71
2021/11/28 13:08:12;;;;;;;0.30;0.30;;;7.30;99.90;;;;;;4431173;32;20569;-71